createdAt,value
2018-09-25T00:01:22.580Z,79.30
2018-09-25T00:03:55.876Z,79.00
2018-09-25T00:06:29.069Z,79.00
2018-09-25T00:09:02.243Z,79.10
2018-09-25T00:11:35.324Z,79.10
2018-09-25T00:14:08.556Z,79.30
2018-09-25T00:16:41.623Z,79.30
2018-09-25T00:19:14.628Z,79.60
2018-09-25T00:21:48.854Z,79.60
2018-09-25T00:24:21.843Z,79.60
2018-09-25T00:26:54.758Z,79.40
2018-09-25T00:29:28.766Z,79.30
2018-09-25T00:32:01.893Z,79.20
2018-09-25T00:34:35.075Z,79.70
2018-09-25T00:37:08.257Z,79.30
2018-09-25T00:39:41.498Z,79.20
2018-09-25T00:42:14.538Z,79.10
2018-09-25T00:44:48.524Z,78.80
2018-09-25T00:47:21.543Z,79.10
2018-09-25T00:49:54.676Z,79.20
2018-09-25T00:52:27.670Z,79.40
2018-09-25T00:55:00.724Z,79.60
2018-09-25T00:57:33.923Z,79.00
2018-09-25T01:00:07.219Z,79.60
2018-09-25T01:02:40.417Z,79.20
2018-09-25T01:05:13.616Z,79.00
2018-09-25T01:07:46.610Z,79.00
2018-09-25T01:10:19.760Z,79.50
2018-09-25T01:12:52.696Z,79.50
2018-09-25T01:15:25.803Z,79.30
2018-09-25T01:17:58.751Z,79.70
2018-09-25T01:20:31.928Z,79.30
2018-09-25T01:23:05.132Z,79.50
2018-09-25T01:25:38.186Z,79.20
2018-09-25T01:28:11.275Z,79.40
2018-09-25T01:30:44.511Z,79.10
2018-09-25T01:33:17.480Z,79.20
2018-09-25T01:35:50.550Z,79.70
2018-09-25T01:38:23.684Z,79.40
2018-09-25T01:40:57.889Z,79.30
2018-09-25T01:43:31.097Z,79.60
2018-09-25T01:46:04.092Z,79.80
2018-09-25T01:48:37.140Z,79.90
2018-09-25T01:51:10.287Z,80.00
2018-09-25T01:53:43.294Z,80.40
2018-09-25T01:56:16.265Z,80.40
2018-09-25T01:58:49.258Z,80.10
2018-09-25T02:01:22.447Z,80.30
2018-09-25T02:03:55.526Z,80.40
2018-09-25T02:06:28.427Z,80.20
2018-09-25T02:09:01.352Z,80.30
2018-09-25T02:11:34.476Z,79.80
2018-09-25T02:14:07.488Z,79.70
2018-09-25T02:16:40.477Z,80.30
2018-09-25T02:19:13.592Z,80.20
2018-09-25T02:21:46.505Z,80.30
2018-09-25T02:24:19.560Z,80.00
2018-09-25T02:26:52.742Z,79.80
2018-09-25T02:29:25.982Z,79.60
2018-09-25T02:31:58.996Z,80.00
2018-09-25T02:34:32.022Z,80.10
2018-09-25T02:37:05.088Z,79.80
2018-09-25T02:39:38.062Z,80.10
2018-09-25T02:42:11.140Z,80.00
2018-09-25T02:44:44.153Z,79.80
2018-09-25T02:47:17.265Z,79.30
2018-09-25T02:49:50.476Z,79.60
2018-09-25T02:52:23.515Z,79.60
2018-09-25T02:54:56.474Z,79.70
2018-09-25T02:57:29.625Z,79.70
2018-09-25T03:00:02.628Z,79.90
2018-09-25T03:02:35.652Z,79.70
2018-09-25T03:05:08.662Z,79.70
2018-09-25T03:07:41.778Z,80.00
2018-09-25T03:10:14.986Z,79.80
2018-09-25T03:12:48.032Z,79.90
2018-09-25T03:15:21.184Z,80.10
2018-09-25T03:17:54.267Z,80.10
2018-09-25T03:20:27.377Z,79.70
2018-09-25T03:23:00.449Z,79.90
2018-09-25T03:25:33.457Z,79.80
2018-09-25T03:28:06.522Z,79.50
2018-09-25T03:30:39.553Z,79.20
2018-09-25T03:33:12.546Z,79.20
2018-09-25T03:35:45.621Z,79.60
2018-09-25T03:38:18.740Z,79.30
2018-09-25T03:40:51.770Z,79.30
2018-09-25T03:43:24.892Z,79.90
2018-09-25T03:45:59.159Z,79.60
2018-09-25T03:48:32.302Z,79.60
2018-09-25T03:51:05.298Z,79.30
2018-09-25T03:53:38.538Z,79.20
2018-09-25T03:56:11.547Z,78.90
2018-09-25T03:58:44.588Z,79.00
2018-09-25T04:01:17.980Z,78.80
2018-09-25T04:03:51.036Z,79.00
2018-09-25T04:06:24.176Z,79.20
2018-09-25T04:08:58.395Z,79.30
2018-09-25T04:11:31.462Z,79.10
2018-09-25T04:14:04.556Z,79.00
2018-09-25T04:16:37.710Z,78.70
2018-09-25T04:19:10.683Z,79.10
2018-09-25T04:21:44.060Z,78.70
2018-09-25T04:24:17.593Z,78.90
2018-09-25T04:26:50.760Z,79.00
2018-09-25T04:29:23.920Z,78.80
2018-09-25T04:31:57.142Z,79.00
2018-09-25T04:34:30.165Z,79.30
2018-09-25T04:37:03.474Z,81.00
2018-09-25T04:39:36.457Z,80.90
2018-09-25T04:42:09.725Z,80.70
2018-09-25T04:44:42.833Z,80.20
2018-09-25T04:47:15.978Z,80.10
2018-09-25T04:49:48.996Z,80.20
2018-09-25T04:52:21.866Z,80.00
2018-09-25T04:54:55.439Z,79.80
2018-09-25T04:57:28.949Z,79.60
2018-09-25T05:00:02.170Z,79.30
2018-09-25T05:02:35.596Z,79.30
2018-09-25T05:05:08.682Z,79.20
2018-09-25T05:07:41.976Z,79.10
2018-09-25T05:10:15.199Z,79.20
2018-09-25T05:12:49.585Z,79.10
2018-09-25T05:15:22.573Z,79.20
2018-09-25T05:17:55.718Z,79.40
2018-09-25T05:20:28.886Z,80.00
2018-09-25T05:23:01.923Z,80.10
2018-09-25T05:25:34.881Z,79.90
2018-09-25T05:28:07.951Z,79.90
2018-09-25T05:30:41.153Z,80.10
2018-09-25T05:33:14.195Z,80.30
2018-09-25T05:35:48.230Z,80.40
2018-09-25T05:38:21.400Z,81.50
2018-09-25T05:40:54.433Z,82.20
2018-09-25T05:43:28.412Z,80.40
2018-09-25T05:46:01.552Z,79.90
2018-09-25T05:48:34.712Z,79.80
2018-09-25T05:51:07.677Z,80.00
2018-09-25T05:53:40.783Z,80.60
2018-09-25T05:56:13.848Z,80.50
2018-09-25T05:58:46.814Z,80.80
2018-09-25T06:01:19.799Z,80.80
2018-09-25T06:03:52.945Z,80.80
2018-09-25T06:06:26.055Z,80.70
2018-09-25T06:08:59.080Z,80.90
2018-09-25T06:11:32.025Z,81.10
2018-09-25T06:14:04.975Z,81.30
2018-09-25T06:16:37.956Z,82.80
2018-09-25T06:19:11.065Z,82.00
2018-09-25T06:21:44.004Z,82.90
2018-09-25T06:24:17.034Z,81.90
2018-09-25T06:26:49.975Z,81.40
2018-09-25T06:29:22.956Z,80.30
2018-09-25T06:31:56.104Z,79.90
2018-09-25T06:34:29.112Z,78.60
2018-09-25T06:37:01.997Z,77.70
2018-09-25T06:39:35.040Z,77.10
2018-09-25T06:42:08.017Z,76.20
2018-09-25T06:44:40.990Z,75.50
2018-09-25T06:47:14.015Z,75.10
2018-09-25T06:49:47.102Z,74.40
2018-09-25T06:52:20.327Z,73.80
2018-09-25T06:54:53.500Z,72.60
2018-09-25T06:57:26.370Z,72.40
2018-09-25T06:59:59.334Z,71.50
2018-09-25T07:02:32.383Z,71.30
2018-09-25T07:05:05.486Z,71.30
2018-09-25T07:07:38.475Z,71.30
2018-09-25T07:10:11.852Z,69.40
2018-09-25T07:12:44.852Z,70.00
2018-09-25T07:15:18.888Z,69.80
2018-09-25T07:17:51.865Z,69.00
2018-09-25T07:20:24.821Z,69.20
2018-09-25T07:22:57.783Z,68.20
2018-09-25T07:25:30.996Z,67.70
2018-09-25T07:28:04.184Z,67.70
2018-09-25T07:30:37.117Z,67.00
2018-09-25T07:33:10.272Z,66.50
2018-09-25T07:35:43.318Z,64.30
2018-09-25T07:38:16.555Z,63.60
2018-09-25T07:40:49.577Z,64.20
2018-09-25T07:43:22.681Z,63.60
2018-09-25T07:45:55.796Z,62.60
2018-09-25T07:48:29.022Z,61.10
2018-09-25T07:51:02.081Z,62.50
2018-09-25T07:53:35.158Z,61.20
2018-09-25T07:56:08.256Z,60.30
2018-09-25T07:58:41.361Z,61.10
2018-09-25T08:01:14.497Z,60.10
2018-09-25T08:03:47.432Z,60.10
2018-09-25T08:06:20.574Z,59.00
2018-09-25T08:08:53.605Z,56.90
2018-09-25T08:11:26.633Z,59.20
2018-09-25T08:13:59.744Z,58.40
2018-09-25T08:16:32.776Z,57.10
2018-09-25T08:19:05.675Z,56.50
2018-09-25T08:21:38.721Z,56.00
2018-09-25T08:24:11.699Z,56.50
2018-09-25T08:26:44.667Z,55.90
2018-09-25T08:29:17.672Z,56.50
2018-09-25T08:31:50.732Z,54.10
2018-09-25T08:34:23.695Z,55.10
2018-09-25T08:36:56.953Z,55.80
2018-09-25T08:39:30.234Z,54.50
2018-09-25T08:42:03.186Z,56.00
2018-09-25T08:44:36.153Z,55.60
2018-09-25T08:47:09.269Z,53.90
2018-09-25T08:49:42.286Z,53.70
2018-09-25T08:52:15.272Z,52.70
2018-09-25T08:54:48.268Z,55.40
2018-09-25T08:57:21.504Z,54.70
2018-09-25T08:59:54.471Z,54.10
2018-09-25T09:02:27.650Z,52.70
2018-09-25T09:05:00.920Z,50.10
2018-09-25T09:07:33.840Z,48.10
2018-09-25T09:10:06.960Z,50.30
2018-09-25T09:12:39.899Z,50.20
2018-09-25T09:15:13.077Z,50.50
2018-09-25T09:17:46.039Z,49.40
2018-09-25T09:20:19.080Z,47.50
2018-09-25T09:22:52.193Z,46.70
2018-09-25T09:25:25.267Z,48.10
2018-09-25T09:27:58.471Z,48.70
2018-09-25T09:30:31.535Z,47.80
2018-09-25T09:33:04.568Z,48.30
2018-09-25T09:35:37.596Z,49.00
2018-09-25T09:38:10.779Z,50.10
2018-09-25T09:40:43.903Z,48.40
2018-09-25T09:43:16.912Z,48.30
2018-09-25T09:45:49.928Z,47.40
2018-09-25T09:48:22.970Z,46.80
2018-09-25T09:50:56.080Z,46.90
2018-09-25T09:53:29.139Z,43.40
2018-09-25T09:56:02.377Z,43.90
2018-09-25T09:58:35.351Z,44.10
2018-09-25T10:01:08.486Z,40.30
2018-09-25T10:03:41.609Z,40.10
2018-09-25T10:06:14.765Z,40.90
2018-09-25T10:08:47.731Z,40.30
2018-09-25T10:11:20.736Z,40.20
2018-09-25T10:13:53.855Z,40.60
2018-09-25T10:16:27.060Z,40.70
2018-09-25T10:19:00.202Z,39.10
2018-09-25T10:21:33.073Z,37.90
2018-09-25T10:24:06.077Z,38.60
2018-09-25T10:26:39.056Z,39.90
2018-09-25T10:29:12.190Z,38.50
2018-09-25T10:31:45.199Z,39.00
2018-09-25T10:34:18.398Z,39.20
2018-09-25T10:36:51.536Z,39.60
2018-09-25T10:39:24.456Z,38.80
2018-09-25T10:41:57.533Z,38.60
2018-09-25T10:44:30.623Z,40.20
2018-09-25T10:47:03.559Z,40.10
2018-09-25T10:49:36.564Z,38.00
2018-09-25T10:52:09.520Z,37.90
2018-09-25T10:54:42.520Z,37.90
2018-09-25T10:57:15.533Z,39.10
2018-09-25T10:59:48.684Z,36.90
2018-09-25T11:02:21.589Z,38.10
2018-09-25T11:04:54.688Z,37.10
2018-09-25T11:07:27.651Z,39.70
2018-09-25T11:10:00.726Z,36.30
2018-09-25T11:12:34.832Z,36.50
2018-09-25T11:15:07.920Z,39.10
2018-09-25T11:17:41.010Z,37.10
2018-09-25T11:20:14.184Z,37.40
2018-09-25T11:22:47.148Z,38.20
2018-09-25T11:25:20.279Z,38.60
2018-09-25T11:27:53.271Z,38.10
2018-09-25T11:30:26.364Z,36.40
2018-09-25T11:32:59.393Z,37.20
2018-09-25T11:35:32.476Z,38.30
2018-09-25T11:38:05.641Z,37.40
2018-09-25T11:40:38.628Z,35.50
2018-09-25T11:43:11.683Z,36.10
2018-09-25T11:45:44.871Z,35.80
2018-09-25T11:48:17.946Z,37.90
2018-09-25T11:50:52.213Z,37.30
2018-09-25T11:53:29.214Z,36.60
2018-09-25T11:56:02.433Z,38.20
2018-09-25T11:58:35.535Z,37.40
2018-09-25T12:01:08.404Z,37.50
2018-09-25T12:03:41.457Z,37.70
2018-09-25T12:06:14.453Z,37.70
2018-09-25T12:08:47.599Z,35.60
2018-09-25T12:11:20.593Z,37.50
2018-09-25T12:13:53.772Z,35.80
2018-09-25T12:16:26.719Z,36.70
2018-09-25T12:18:59.856Z,38.30
2018-09-25T12:21:32.836Z,36.20
2018-09-25T12:24:05.719Z,36.90
2018-09-25T12:26:38.842Z,38.10
2018-09-25T12:29:11.779Z,37.10
2018-09-25T12:31:44.911Z,38.80
2018-09-25T12:34:18.013Z,34.70
2018-09-25T12:36:50.909Z,36.30
2018-09-25T12:39:24.127Z,37.70
2018-09-25T12:41:57.267Z,37.30
2018-09-25T12:44:30.204Z,38.50
2018-09-25T12:47:03.216Z,38.80
2018-09-25T12:49:36.327Z,37.20
2018-09-25T12:52:09.307Z,38.20
2018-09-25T12:54:42.271Z,36.90
2018-09-25T12:57:15.194Z,37.40
2018-09-25T12:59:48.355Z,38.80
2018-09-25T13:02:21.270Z,36.30
2018-09-25T13:04:54.382Z,36.10
2018-09-25T13:07:27.412Z,36.00
2018-09-25T13:10:00.354Z,35.40
2018-09-25T13:12:33.358Z,36.40
2018-09-25T13:15:06.477Z,36.80
2018-09-25T13:17:39.472Z,36.20
2018-09-25T13:20:12.560Z,35.50
2018-09-25T13:22:45.551Z,35.80
2018-09-25T13:25:18.531Z,35.50
2018-09-25T13:27:51.497Z,34.90
2018-09-25T13:30:24.501Z,33.90
2018-09-25T13:32:57.494Z,34.30
2018-09-25T13:35:30.560Z,35.10
2018-09-25T13:38:03.648Z,34.50
2018-09-25T13:40:36.631Z,36.60
2018-09-25T13:43:09.517Z,37.00
2018-09-25T13:45:42.728Z,33.70
2018-09-25T13:48:15.760Z,33.20
2018-09-25T13:50:48.710Z,34.80
2018-09-25T13:53:21.851Z,35.40
2018-09-25T13:55:54.866Z,35.30
2018-09-25T13:58:28.949Z,33.10
2018-09-25T14:01:02.056Z,35.70
2018-09-25T14:03:42.163Z,33.60
2018-09-25T14:06:15.229Z,34.80
2018-09-25T14:08:48.332Z,33.80
2018-09-25T14:11:21.438Z,36.00
2018-09-25T14:13:54.420Z,36.40
2018-09-25T14:16:27.369Z,35.60
2018-09-25T14:19:00.501Z,34.90
2018-09-25T14:21:33.571Z,34.50
2018-09-25T14:24:06.618Z,34.90
2018-09-25T14:26:39.761Z,35.50
2018-09-25T14:29:12.916Z,36.00
2018-09-25T14:31:46.176Z,36.40
2018-09-25T14:34:19.200Z,35.40
2018-09-25T14:36:52.200Z,35.80
2018-09-25T14:39:25.296Z,35.80
2018-09-25T14:41:58.490Z,37.10
2018-09-25T14:44:31.687Z,35.20
2018-09-25T14:47:05.674Z,36.40
2018-09-25T14:49:38.792Z,36.30
2018-09-25T14:52:11.742Z,35.80
2018-09-25T14:54:44.687Z,37.70
2018-09-25T14:57:17.634Z,35.10
2018-09-25T14:59:50.612Z,35.40
2018-09-25T15:02:23.607Z,37.30
2018-09-25T15:04:56.616Z,40.20
2018-09-25T15:07:29.705Z,37.40
2018-09-25T15:10:02.767Z,37.10
2018-09-25T15:12:35.722Z,39.20
2018-09-25T15:15:08.720Z,37.00
2018-09-25T15:17:41.827Z,38.40
2018-09-25T15:20:14.820Z,38.20
2018-09-25T15:22:47.774Z,35.40
2018-09-25T15:25:20.926Z,36.10
2018-09-25T15:27:54.019Z,37.70
2018-09-25T15:30:27.167Z,35.50
2018-09-25T15:33:00.055Z,35.10
2018-09-25T15:35:33.061Z,37.60
2018-09-25T15:38:06.025Z,37.40
2018-09-25T15:40:39.190Z,38.20
2018-09-25T15:43:13.921Z,39.20
2018-09-25T15:45:46.957Z,37.70
2018-09-25T15:48:20.043Z,38.30
2018-09-25T15:50:53.214Z,38.90
2018-09-25T15:53:26.186Z,39.70
2018-09-25T15:55:59.216Z,38.40
2018-09-25T15:58:32.142Z,39.90
2018-09-25T16:01:05.304Z,41.60
2018-09-25T16:03:38.203Z,40.80
2018-09-25T16:06:11.288Z,37.60
2018-09-25T16:08:44.493Z,37.70
2018-09-25T16:11:17.695Z,37.90
2018-09-25T16:13:50.749Z,37.40
2018-09-25T16:16:23.824Z,39.90
2018-09-25T16:18:56.901Z,39.30
2018-09-25T16:21:30.045Z,39.80
2018-09-25T16:24:03.275Z,39.10
2018-09-25T16:26:36.372Z,40.10
2018-09-25T16:29:09.620Z,39.20
2018-09-25T16:31:42.646Z,39.80
2018-09-25T16:34:15.710Z,40.40
2018-09-25T16:36:49.694Z,40.60
2018-09-25T16:39:22.734Z,40.60
2018-09-25T16:41:55.883Z,41.60
2018-09-25T16:44:29.069Z,41.30
2018-09-25T16:47:02.155Z,40.90
2018-09-25T16:49:35.187Z,41.70
2018-09-25T16:52:08.319Z,41.80
2018-09-25T16:54:41.358Z,42.40
2018-09-25T16:57:14.360Z,42.50
2018-09-25T16:59:47.508Z,43.10
2018-09-25T17:02:20.721Z,43.20
2018-09-25T17:04:53.756Z,43.20
2018-09-25T17:07:26.968Z,43.00
2018-09-25T17:10:00.035Z,44.20
2018-09-25T17:12:32.969Z,43.90
2018-09-25T17:15:05.855Z,44.50
2018-09-25T17:17:38.876Z,45.10
2018-09-25T17:20:11.784Z,45.30
2018-09-25T17:22:44.974Z,47.10
2018-09-25T17:25:18.300Z,48.20
2018-09-25T17:27:51.335Z,49.30
2018-09-25T17:30:24.444Z,50.30
2018-09-25T17:32:57.589Z,50.80
2018-09-25T17:35:30.636Z,51.00
2018-09-25T17:38:03.681Z,51.60
2018-09-25T17:40:36.867Z,51.60
2018-09-25T17:43:10.058Z,51.20
2018-09-25T17:45:43.030Z,50.50
2018-09-25T17:48:17.307Z,51.10
2018-09-25T17:50:50.423Z,51.40
2018-09-25T17:53:23.450Z,51.40
2018-09-25T17:55:56.498Z,52.10
2018-09-25T17:58:29.779Z,51.60
2018-09-25T18:01:04.185Z,51.40
2018-09-25T18:03:37.360Z,52.30
2018-09-25T18:06:11.709Z,52.10
2018-09-25T18:08:46.883Z,52.60
2018-09-25T18:11:23.172Z,52.70
2018-09-25T18:13:58.388Z,53.90
2018-09-25T18:16:31.444Z,54.10
2018-09-25T18:19:04.544Z,54.80
2018-09-25T18:21:37.664Z,54.00
2018-09-25T18:24:10.560Z,54.70
2018-09-25T18:29:13.493Z,54.40
2018-09-25T18:34:41.663Z,59.40
2018-09-25T18:37:15.337Z,54.90
2018-09-25T18:39:49.308Z,54.80
2018-09-25T18:42:23.136Z,54.90
2018-09-25T18:44:57.203Z,56.00
2018-09-25T18:47:31.021Z,56.40
2018-09-25T18:50:04.708Z,56.10
2018-09-25T18:52:39.552Z,56.20
2018-09-25T18:55:14.116Z,56.10
2018-09-25T18:57:47.648Z,56.90
2018-09-25T19:00:21.575Z,56.20
2018-09-25T19:02:55.319Z,56.00
2018-09-25T19:05:30.176Z,55.80
2018-09-25T19:08:03.961Z,55.90
2018-09-25T19:10:38.821Z,56.40
2018-09-25T19:13:12.843Z,57.40
2018-09-25T19:15:46.605Z,59.30
2018-09-25T19:18:22.317Z,59.00
2018-09-25T19:20:56.151Z,58.90
2018-09-25T19:23:29.888Z,59.40
2018-09-25T19:26:04.684Z,60.00
2018-09-25T19:28:38.422Z,59.80
2018-09-25T19:31:12.039Z,59.70
2018-09-25T19:33:45.843Z,59.60
2018-09-25T19:36:19.702Z,59.90
2018-09-25T19:38:53.359Z,59.20
2018-09-25T19:41:27.224Z,59.70
2018-09-25T19:44:00.940Z,59.90
2018-09-25T19:46:34.796Z,60.40
2018-09-25T19:49:08.448Z,61.00
2018-09-25T19:51:42.278Z,60.20
2018-09-25T19:54:16.029Z,59.90
2018-09-25T19:56:49.777Z,61.10
2018-09-25T19:59:23.428Z,61.40
2018-09-25T20:01:57.144Z,60.40
2018-09-25T20:04:31.129Z,60.00
2018-09-25T20:07:04.935Z,60.50
2018-09-25T20:09:38.828Z,60.50
2018-09-25T20:12:12.530Z,61.00
2018-09-25T20:14:46.381Z,62.10
2018-09-25T20:17:19.957Z,62.90
2018-09-25T20:19:53.645Z,61.90
2018-09-25T20:22:27.264Z,61.20
2018-09-25T20:25:01.108Z,61.30
2018-09-25T20:27:34.775Z,61.50
2018-09-25T20:30:08.734Z,61.70
2018-09-25T20:32:42.584Z,62.30
2018-09-25T20:35:16.275Z,62.60
2018-09-25T20:37:49.979Z,62.20
2018-09-25T20:40:23.565Z,62.10
2018-09-25T20:42:57.747Z,63.20
2018-09-25T20:45:31.323Z,63.20
2018-09-25T20:48:05.144Z,63.70
2018-09-25T20:50:38.751Z,63.60
2018-09-25T20:53:12.840Z,63.20
2018-09-25T20:55:46.541Z,63.60
2018-09-25T20:58:20.081Z,63.20
2018-09-25T21:00:55.635Z,63.90
2018-09-25T21:03:31.838Z,63.40
2018-09-25T21:06:05.650Z,63.50
2018-09-25T21:08:39.449Z,63.60
2018-09-25T21:11:13.159Z,63.80
2018-09-25T21:13:46.779Z,64.20
2018-09-25T21:16:20.571Z,64.10
2018-09-25T21:18:55.992Z,64.80
2018-09-25T21:21:31.254Z,64.80
2018-09-25T21:24:05.005Z,64.60
2018-09-25T21:26:38.906Z,66.30
2018-09-25T21:29:12.778Z,66.00
2018-09-25T21:31:46.551Z,65.90
2018-09-25T21:34:20.279Z,65.50
2018-09-25T21:39:44.046Z,65.90
2018-09-25T21:42:17.791Z,66.10
2018-09-25T21:44:51.568Z,66.30
2018-09-25T21:47:25.429Z,65.90
2018-09-25T21:49:59.052Z,66.30
2018-09-25T21:52:32.702Z,66.10
2018-09-25T21:55:06.449Z,66.50
2018-09-25T21:57:40.082Z,66.90
2018-09-25T22:00:14.166Z,67.00
2018-09-25T22:02:47.852Z,66.60
2018-09-25T22:05:21.677Z,66.60
2018-09-25T22:07:55.340Z,66.60
2018-09-25T22:10:29.201Z,66.80
2018-09-25T22:13:02.957Z,67.40
2018-09-25T22:15:36.800Z,67.10
2018-09-25T22:18:10.401Z,66.80
2018-09-25T22:20:44.078Z,67.20
2018-09-25T22:23:18.019Z,67.00
2018-09-25T22:25:51.568Z,67.10
2018-09-25T22:28:25.588Z,67.40
2018-09-25T22:30:59.365Z,68.70
2018-09-25T22:33:33.137Z,68.70
2018-09-25T22:36:07.103Z,68.40
2018-09-25T22:38:40.738Z,68.50
2018-09-25T22:41:14.404Z,68.80
2018-09-25T22:43:48.080Z,70.10
2018-09-25T22:46:21.733Z,70.00
2018-09-25T22:48:55.455Z,70.40
2018-09-25T22:51:29.382Z,71.10
2018-09-25T22:54:03.253Z,70.80
2018-09-25T22:56:37.091Z,70.10
2018-09-25T22:59:10.783Z,70.30
2018-09-25T23:01:44.669Z,70.60
2018-09-25T23:04:19.488Z,71.20
2018-09-25T23:06:53.118Z,71.20
2018-09-25T23:09:26.613Z,71.50
2018-09-25T23:12:00.308Z,71.10
2018-09-25T23:14:35.184Z,71.00
2018-09-25T23:17:08.945Z,70.80
2018-09-25T23:19:42.772Z,71.10
2018-09-25T23:22:16.335Z,72.00
2018-09-25T23:24:50.051Z,71.30
2018-09-25T23:27:23.627Z,71.10
2018-09-25T23:29:57.408Z,71.00
2018-09-25T23:32:31.216Z,71.40
2018-09-25T23:35:04.848Z,71.30
2018-09-25T23:37:38.761Z,71.60
2018-09-25T23:40:42.695Z,71.70
2018-09-25T23:43:16.399Z,72.50
2018-09-25T23:46:22.557Z,72.30
2018-09-25T23:48:58.026Z,72.20
2018-09-25T23:51:48.436Z,72.20
2018-09-25T23:54:35.776Z,72.50
2018-09-25T23:57:11.491Z,72.30
